sensor_id;sensor_type;location;lat;lon;timestamp;temperature;humidity
35559;DHT22;21661;50.794;-1.066;2023-01-24T00:00:04;5.20;99.90
35559;DHT22;21661;50.794;-1.066;2023-01-24T00:02:31;5.30;99.90
35559;DHT22;21661;50.794;-1.066;2023-01-24T00:04:56;5.30;99.90
35559;DHT22;21661;50.794;-1.066;2023-01-24T00:07:22;5.20;99.90
35559;DHT22;21661;50.794;-1.066;2023-01-24T00:09:48;5.30;99.90
35559;DHT22;21661;50.794;-1.066;2023-01-24T00:12:13;5.20;99.90
35559;DHT22;21661;50.794;-1.066;2023-01-24T00:14:39;5.20;99.90
35559;DHT22;21661;50.794;-1.066;2023-01-24T00:17:04;5.20;99.90
35559;DHT22;21661;50.794;-1.066;2023-01-24T00:19:30;5.20;99.90
35559;DHT22;21661;50.794;-1.066;2023-01-24T00:21:55;5.20;99.90
35559;DHT22;21661;50.794;-1.066;2023-01-24T00:24:21;5.10;99.90
35559;DHT22;21661;50.794;-1.066;2023-01-24T00:26:47;5.20;99.90
35559;DHT22;21661;50.794;-1.066;2023-01-24T00:29:12;5.20;99.90
35559;DHT22;21661;50.794;-1.066;2023-01-24T00:31:38;5.20;99.90
35559;DHT22;21661;50.794;-1.066;2023-01-24T00:34:03;5.20;99.90
35559;DHT22;21661;50.794;-1.066;2023-01-24T00:36:29;5.20;99.90
35559;DHT22;21661;50.794;-1.066;2023-01-24T00:38:54;5.20;99.90
35559;DHT22;21661;50.794;-1.066;2023-01-24T00:41:20;5.20;99.90
35559;DHT22;21661;50.794;-1.066;2023-01-24T00:43:46;5.20;99.90
35559;DHT22;21661;50.794;-1.066;2023-01-24T00:46:11;5.20;99.90
35559;DHT22;21661;50.794;-1.066;2023-01-24T00:48:37;5.20;99.90
35559;DHT22;21661;50.794;-1.066;2023-01-24T00:51:03;5.20;99.90
35559;DHT22;21661;50.794;-1.066;2023-01-24T00:53:29;5.20;99.90
35559;DHT22;21661;50.794;-1.066;2023-01-24T00:55:55;5.30;99.90
35559;DHT22;21661;50.794;-1.066;2023-01-24T00:58:21;5.30;99.90
35559;DHT22;21661;50.794;-1.066;2023-01-24T01:00:47;5.20;99.90
35559;DHT22;21661;50.794;-1.066;2023-01-24T01:03:15;5.30;99.90
35559;DHT22;21661;50.794;-1.066;2023-01-24T01:05:42;5.30;99.90
35559;DHT22;21661;50.794;-1.066;2023-01-24T01:08:10;5.20;99.90
35559;DHT22;21661;50.794;-1.066;2023-01-24T01:10:37;5.20;99.90
35559;DHT22;21661;50.794;-1.066;2023-01-24T01:13:03;5.20;99.90
35559;DHT22;21661;50.794;-1.066;2023-01-24T01:15:30;5.20;99.90
35559;DHT22;21661;50.794;-1.066;2023-01-24T01:17:57;5.20;99.90
35559;DHT22;21661;50.794;-1.066;2023-01-24T01:20:23;5.30;99.90
35559;DHT22;21661;50.794;-1.066;2023-01-24T01:22:48;5.20;99.90
35559;DHT22;21661;50.794;-1.066;2023-01-24T01:25:14;5.20;99.90
35559;DHT22;21661;50.794;-1.066;2023-01-24T01:27:40;5.30;99.90
35559;DHT22;21661;50.794;-1.066;2023-01-24T01:30:06;5.30;99.90
35559;DHT22;21661;50.794;-1.066;2023-01-24T01:32:32;5.20;99.90
35559;DHT22;21661;50.794;-1.066;2023-01-24T01:34:57;5.20;99.90
35559;DHT22;21661;50.794;-1.066;2023-01-24T01:37:23;5.20;99.90
35559;DHT22;21661;50.794;-1.066;2023-01-24T01:39:49;5.20;99.90
35559;DHT22;21661;50.794;-1.066;2023-01-24T01:42:15;5.20;99.90
35559;DHT22;21661;50.794;-1.066;2023-01-24T01:44:41;5.20;99.90
35559;DHT22;21661;50.794;-1.066;2023-01-24T01:49:46;5.20;99.90
35559;DHT22;21661;50.794;-1.066;2023-01-24T01:52:13;5.20;99.90
35559;DHT22;21661;50.794;-1.066;2023-01-24T01:54:41;5.20;99.90
35559;DHT22;21661;50.794;-1.066;2023-01-24T01:57:16;5.20;99.90
35559;DHT22;21661;50.794;-1.066;2023-01-24T01:59:56;5.30;99.90
35559;DHT22;21661;50.794;-1.066;2023-01-24T02:02:23;5.30;99.90
35559;DHT22;21661;50.794;-1.066;2023-01-24T02:04:57;5.30;99.90
35559;DHT22;21661;50.794;-1.066;2023-01-24T02:07:34;5.30;99.90
35559;DHT22;21661;50.794;-1.066;2023-01-24T02:10:02;5.40;99.90
35559;DHT22;21661;50.794;-1.066;2023-01-24T02:12:32;5.40;99.90
35559;DHT22;21661;50.794;-1.066;2023-01-24T02:15:08;5.40;99.90
35559;DHT22;21661;50.794;-1.066;2023-01-24T02:17:52;5.40;99.90
35559;DHT22;21661;50.794;-1.066;2023-01-24T02:23:07;5.40;99.90
35559;DHT22;21661;50.794;-1.066;2023-01-24T02:25:48;5.30;99.90
35559;DHT22;21661;50.794;-1.066;2023-01-24T02:28:16;5.40;99.90
35559;DHT22;21661;50.794;-1.066;2023-01-24T02:30:42;5.30;99.90
35559;DHT22;21661;50.794;-1.066;2023-01-24T02:33:15;5.30;99.90
35559;DHT22;21661;50.794;-1.066;2023-01-24T02:35:41;5.40;99.90
35559;DHT22;21661;50.794;-1.066;2023-01-24T02:38:18;5.40;99.90
35559;DHT22;21661;50.794;-1.066;2023-01-24T02:40:46;5.40;99.90
35559;DHT22;21661;50.794;-1.066;2023-01-24T02:43:13;5.40;99.90
35559;DHT22;21661;50.794;-1.066;2023-01-24T02:45:39;5.40;99.90
35559;DHT22;21661;50.794;-1.066;2023-01-24T02:48:05;5.30;99.90
35559;DHT22;21661;50.794;-1.066;2023-01-24T02:50:32;5.30;99.90
35559;DHT22;21661;50.794;-1.066;2023-01-24T02:53:18;5.40;99.90
35559;DHT22;21661;50.794;-1.066;2023-01-24T02:56:07;5.40;99.90
35559;DHT22;21661;50.794;-1.066;2023-01-24T02:58:52;5.30;99.90
35559;DHT22;21661;50.794;-1.066;2023-01-24T03:01:19;5.30;99.90
35559;DHT22;21661;50.794;-1.066;2023-01-24T03:03:46;5.30;99.90
35559;DHT22;21661;50.794;-1.066;2023-01-24T03:06:13;5.30;99.90
35559;DHT22;21661;50.794;-1.066;2023-01-24T03:08:40;5.40;99.90
35559;DHT22;21661;50.794;-1.066;2023-01-24T03:11:06;5.40;99.90
35559;DHT22;21661;50.794;-1.066;2023-01-24T03:13:32;5.30;99.90
35559;DHT22;21661;50.794;-1.066;2023-01-24T03:16:17;5.40;99.90
35559;DHT22;21661;50.794;-1.066;2023-01-24T03:19:02;5.40;99.90
35559;DHT22;21661;50.794;-1.066;2023-01-24T03:21:47;5.40;99.90
35559;DHT22;21661;50.794;-1.066;2023-01-24T03:24:32;5.40;99.90
35559;DHT22;21661;50.794;-1.066;2023-01-24T03:27:16;5.40;99.90
35559;DHT22;21661;50.794;-1.066;2023-01-24T03:30:02;5.50;99.90
35559;DHT22;21661;50.794;-1.066;2023-01-24T03:32:47;5.50;99.90
35559;DHT22;21661;50.794;-1.066;2023-01-24T03:35:31;5.50;99.90
35559;DHT22;21661;50.794;-1.066;2023-01-24T03:37:57;5.50;99.90
35559;DHT22;21661;50.794;-1.066;2023-01-24T03:40:42;5.40;99.90
35559;DHT22;21661;50.794;-1.066;2023-01-24T03:43:08;5.40;99.90
35559;DHT22;21661;50.794;-1.066;2023-01-24T03:45:35;5.40;99.90
35559;DHT22;21661;50.794;-1.066;2023-01-24T03:48:03;5.40;99.90
35559;DHT22;21661;50.794;-1.066;2023-01-24T03:50:35;5.40;99.90
35559;DHT22;21661;50.794;-1.066;2023-01-24T03:53:21;5.40;99.90
35559;DHT22;21661;50.794;-1.066;2023-01-24T03:55:55;5.40;99.90
35559;DHT22;21661;50.794;-1.066;2023-01-24T03:58:21;5.40;99.90
35559;DHT22;21661;50.794;-1.066;2023-01-24T04:00:47;5.40;99.90
35559;DHT22;21661;50.794;-1.066;2023-01-24T04:03:13;5.40;99.90
35559;DHT22;21661;50.794;-1.066;2023-01-24T04:05:39;5.40;99.90
35559;DHT22;21661;50.794;-1.066;2023-01-24T04:08:05;5.30;99.90
35559;DHT22;21661;50.794;-1.066;2023-01-24T04:10:31;5.30;99.90
35559;DHT22;21661;50.794;-1.066;2023-01-24T04:12:57;5.40;99.90
35559;DHT22;21661;50.794;-1.066;2023-01-24T04:15:28;5.30;99.90
35559;DHT22;21661;50.794;-1.066;2023-01-24T04:17:55;5.40;99.90
35559;DHT22;21661;50.794;-1.066;2023-01-24T04:20:25;5.40;99.90
35559;DHT22;21661;50.794;-1.066;2023-01-24T04:22:51;5.40;99.90
35559;DHT22;21661;50.794;-1.066;2023-01-24T04:25:17;5.40;99.90
35559;DHT22;21661;50.794;-1.066;2023-01-24T04:27:43;5.30;99.90
35559;DHT22;21661;50.794;-1.066;2023-01-24T04:30:11;5.30;99.90
35559;DHT22;21661;50.794;-1.066;2023-01-24T04:32:37;5.30;99.90
35559;DHT22;21661;50.794;-1.066;2023-01-24T04:35:03;5.30;99.90
35559;DHT22;21661;50.794;-1.066;2023-01-24T04:37:30;5.30;99.90
35559;DHT22;21661;50.794;-1.066;2023-01-24T04:39:56;5.30;99.90
35559;DHT22;21661;50.794;-1.066;2023-01-24T04:42:22;5.30;99.90
35559;DHT22;21661;50.794;-1.066;2023-01-24T04:44:48;5.30;99.90
35559;DHT22;21661;50.794;-1.066;2023-01-24T04:47:14;5.20;99.90
35559;DHT22;21661;50.794;-1.066;2023-01-24T04:49:39;5.20;99.90
35559;DHT22;21661;50.794;-1.066;2023-01-24T04:52:09;5.20;99.90
35559;DHT22;21661;50.794;-1.066;2023-01-24T04:54:36;5.20;99.90
35559;DHT22;21661;50.794;-1.066;2023-01-24T04:57:01;5.20;99.90
35559;DHT22;21661;50.794;-1.066;2023-01-24T04:59:27;5.30;99.90
35559;DHT22;21661;50.794;-1.066;2023-01-24T05:01:52;5.30;99.90
35559;DHT22;21661;50.794;-1.066;2023-01-24T05:04:18;5.20;99.90
35559;DHT22;21661;50.794;-1.066;2023-01-24T05:06:44;5.20;99.90
35559;DHT22;21661;50.794;-1.066;2023-01-24T05:09:09;5.30;99.90
35559;DHT22;21661;50.794;-1.066;2023-01-24T05:11:35;5.30;99.90
35559;DHT22;21661;50.794;-1.066;2023-01-24T05:14:02;5.30;99.90
35559;DHT22;21661;50.794;-1.066;2023-01-24T05:16:27;5.30;99.90
35559;DHT22;21661;50.794;-1.066;2023-01-24T05:18:53;5.30;99.90
35559;DHT22;21661;50.794;-1.066;2023-01-24T05:21:19;5.30;99.90
35559;DHT22;21661;50.794;-1.066;2023-01-24T05:23:49;5.30;99.90
35559;DHT22;21661;50.794;-1.066;2023-01-24T05:26:16;5.30;99.90
35559;DHT22;21661;50.794;-1.066;2023-01-24T05:28:41;5.20;99.90
35559;DHT22;21661;50.794;-1.066;2023-01-24T05:31:07;5.20;99.90
35559;DHT22;21661;50.794;-1.066;2023-01-24T05:33:34;5.20;99.90
35559;DHT22;21661;50.794;-1.066;2023-01-24T05:36:08;5.20;99.90
35559;DHT22;21661;50.794;-1.066;2023-01-24T05:38:34;5.20;99.90
35559;DHT22;21661;50.794;-1.066;2023-01-24T05:41:04;5.20;99.90
35559;DHT22;21661;50.794;-1.066;2023-01-24T05:43:30;5.20;99.90
35559;DHT22;21661;50.794;-1.066;2023-01-24T05:46:00;5.20;99.90
35559;DHT22;21661;50.794;-1.066;2023-01-24T05:48:27;5.20;99.90
35559;DHT22;21661;50.794;-1.066;2023-01-24T05:51:01;5.20;99.90
35559;DHT22;21661;50.794;-1.066;2023-01-24T05:53:29;5.10;99.90
35559;DHT22;21661;50.794;-1.066;2023-01-24T05:55:57;5.10;99.90
35559;DHT22;21661;50.794;-1.066;2023-01-24T05:58:23;5.10;99.90
35559;DHT22;21661;50.794;-1.066;2023-01-24T06:00:49;5.10;99.90
35559;DHT22;21661;50.794;-1.066;2023-01-24T06:03:15;5.10;99.90
35559;DHT22;21661;50.794;-1.066;2023-01-24T06:05:45;5.10;99.90
35559;DHT22;21661;50.794;-1.066;2023-01-24T06:08:11;5.10;99.90
35559;DHT22;21661;50.794;-1.066;2023-01-24T06:10:36;5.10;99.90
35559;DHT22;21661;50.794;-1.066;2023-01-24T06:13:02;5.10;99.90
35559;DHT22;21661;50.794;-1.066;2023-01-24T06:15:28;5.10;99.90
35559;DHT22;21661;50.794;-1.066;2023-01-24T06:17:53;5.10;99.90
35559;DHT22;21661;50.794;-1.066;2023-01-24T06:20:19;5.10;99.90
35559;DHT22;21661;50.794;-1.066;2023-01-24T06:22:54;5.10;99.90
35559;DHT22;21661;50.794;-1.066;2023-01-24T06:25:23;5.10;99.90
35559;DHT22;21661;50.794;-1.066;2023-01-24T06:27:50;5.10;99.90
35559;DHT22;21661;50.794;-1.066;2023-01-24T06:30:17;5.10;99.90
35559;DHT22;21661;50.794;-1.066;2023-01-24T06:38:24;5.20;99.90
35559;DHT22;21661;50.794;-1.066;2023-01-24T06:40:56;5.10;99.90
35559;DHT22;21661;50.794;-1.066;2023-01-24T06:43:22;5.20;99.90
35559;DHT22;21661;50.794;-1.066;2023-01-24T06:45:48;5.10;99.90
35559;DHT22;21661;50.794;-1.066;2023-01-24T06:48:14;5.10;99.90
35559;DHT22;21661;50.794;-1.066;2023-01-24T06:50:39;5.10;99.90
35559;DHT22;21661;50.794;-1.066;2023-01-24T06:53:05;5.10;99.90
35559;DHT22;21661;50.794;-1.066;2023-01-24T06:55:33;5.10;99.90
35559;DHT22;21661;50.794;-1.066;2023-01-24T06:58:01;5.10;99.90
35559;DHT22;21661;50.794;-1.066;2023-01-24T07:00:28;5.10;99.90
35559;DHT22;21661;50.794;-1.066;2023-01-24T07:03:01;5.10;99.90
35559;DHT22;21661;50.794;-1.066;2023-01-24T07:05:28;5.10;99.90
35559;DHT22;21661;50.794;-1.066;2023-01-24T07:07:54;5.20;99.90
35559;DHT22;21661;50.794;-1.066;2023-01-24T07:10:20;5.20;99.90
35559;DHT22;21661;50.794;-1.066;2023-01-24T07:12:46;5.10;99.90
35559;DHT22;21661;50.794;-1.066;2023-01-24T07:15:13;5.10;99.90
35559;DHT22;21661;50.794;-1.066;2023-01-24T07:17:38;5.10;99.90
35559;DHT22;21661;50.794;-1.066;2023-01-24T07:20:05;5.10;99.90
35559;DHT22;21661;50.794;-1.066;2023-01-24T07:22:31;5.20;99.90
35559;DHT22;21661;50.794;-1.066;2023-01-24T07:24:57;5.20;99.90
35559;DHT22;21661;50.794;-1.066;2023-01-24T07:27:22;5.20;99.90
35559;DHT22;21661;50.794;-1.066;2023-01-24T07:29:48;5.20;99.90
35559;DHT22;21661;50.794;-1.066;2023-01-24T07:32:14;5.20;99.90
35559;DHT22;21661;50.794;-1.066;2023-01-24T07:34:39;5.20;99.90
35559;DHT22;21661;50.794;-1.066;2023-01-24T07:37:06;5.20;99.90
35559;DHT22;21661;50.794;-1.066;2023-01-24T07:39:32;5.20;99.90
35559;DHT22;21661;50.794;-1.066;2023-01-24T07:41:58;5.20;99.90
35559;DHT22;21661;50.794;-1.066;2023-01-24T07:44:24;5.20;99.90
35559;DHT22;21661;50.794;-1.066;2023-01-24T07:46:49;5.20;99.90
35559;DHT22;21661;50.794;-1.066;2023-01-24T07:49:15;5.20;99.90
35559;DHT22;21661;50.794;-1.066;2023-01-24T07:51:41;5.20;99.90
35559;DHT22;21661;50.794;-1.066;2023-01-24T07:54:07;5.20;99.90
35559;DHT22;21661;50.794;-1.066;2023-01-24T07:56:33;5.10;99.90
35559;DHT22;21661;50.794;-1.066;2023-01-24T07:58:58;5.20;99.90
35559;DHT22;21661;50.794;-1.066;2023-01-24T08:01:25;5.20;99.90
35559;DHT22;21661;50.794;-1.066;2023-01-24T08:03:54;5.20;99.90
35559;DHT22;21661;50.794;-1.066;2023-01-24T08:06:21;5.30;99.90
35559;DHT22;21661;50.794;-1.066;2023-01-24T08:08:46;5.20;99.90
35559;DHT22;21661;50.794;-1.066;2023-01-24T08:11:12;5.30;99.90
35559;DHT22;21661;50.794;-1.066;2023-01-24T08:13:41;5.20;99.90
35559;DHT22;21661;50.794;-1.066;2023-01-24T08:16:07;5.20;99.90
35559;DHT22;21661;50.794;-1.066;2023-01-24T08:18:33;5.10;99.90
35559;DHT22;21661;50.794;-1.066;2023-01-24T08:20:59;5.10;99.90
35559;DHT22;21661;50.794;-1.066;2023-01-24T08:23:24;5.10;99.90
35559;DHT22;21661;50.794;-1.066;2023-01-24T08:25:50;5.20;99.90
35559;DHT22;21661;50.794;-1.066;2023-01-24T08:28:16;5.20;99.90
35559;DHT22;21661;50.794;-1.066;2023-01-24T08:30:42;5.20;99.90
35559;DHT22;21661;50.794;-1.066;2023-01-24T08:33:08;5.20;99.90
35559;DHT22;21661;50.794;-1.066;2023-01-24T08:35:37;5.20;99.90
35559;DHT22;21661;50.794;-1.066;2023-01-24T08:38:03;5.30;99.90
35559;DHT22;21661;50.794;-1.066;2023-01-24T08:40:28;5.30;99.90
35559;DHT22;21661;50.794;-1.066;2023-01-24T08:42:54;5.30;99.90
35559;DHT22;21661;50.794;-1.066;2023-01-24T08:45:20;5.30;99.90
35559;DHT22;21661;50.794;-1.066;2023-01-24T08:47:51;5.20;99.90
35559;DHT22;21661;50.794;-1.066;2023-01-24T08:50:17;5.30;99.90
35559;DHT22;21661;50.794;-1.066;2023-01-24T08:52:45;5.30;99.90
35559;DHT22;21661;50.794;-1.066;2023-01-24T08:55:10;5.30;99.90
35559;DHT22;21661;50.794;-1.066;2023-01-24T08:57:36;5.30;99.90
35559;DHT22;21661;50.794;-1.066;2023-01-24T09:00:02;5.30;99.90
35559;DHT22;21661;50.794;-1.066;2023-01-24T09:02:28;5.30;99.90
35559;DHT22;21661;50.794;-1.066;2023-01-24T09:04:54;5.30;99.90
35559;DHT22;21661;50.794;-1.066;2023-01-24T09:07:20;5.30;99.90
35559;DHT22;21661;50.794;-1.066;2023-01-24T09:09:45;5.20;99.90
35559;DHT22;21661;50.794;-1.066;2023-01-24T09:12:11;5.30;99.90
35559;DHT22;21661;50.794;-1.066;2023-01-24T09:14:36;5.30;99.90
35559;DHT22;21661;50.794;-1.066;2023-01-24T09:17:02;5.30;99.90
35559;DHT22;21661;50.794;-1.066;2023-01-24T09:19:28;5.30;99.90
35559;DHT22;21661;50.794;-1.066;2023-01-24T09:21:53;5.40;99.90
35559;DHT22;21661;50.794;-1.066;2023-01-24T09:24:22;5.30;99.90
35559;DHT22;21661;50.794;-1.066;2023-01-24T09:26:48;5.30;99.90
35559;DHT22;21661;50.794;-1.066;2023-01-24T09:29:14;5.40;99.90
35559;DHT22;21661;50.794;-1.066;2023-01-24T09:31:39;5.40;99.90
35559;DHT22;21661;50.794;-1.066;2023-01-24T09:34:05;5.40;99.90
35559;DHT22;21661;50.794;-1.066;2023-01-24T09:36:31;5.50;99.90
35559;DHT22;21661;50.794;-1.066;2023-01-24T09:38:57;5.50;99.90
35559;DHT22;21661;50.794;-1.066;2023-01-24T09:46:57;5.40;99.90
35559;DHT22;21661;50.794;-1.066;2023-01-24T09:49:48;5.40;99.90
35559;DHT22;21661;50.794;-1.066;2023-01-24T09:52:44;5.40;99.90
35559;DHT22;21661;50.794;-1.066;2023-01-24T09:55:30;5.30;99.90
35559;DHT22;21661;50.794;-1.066;2023-01-24T10:00:38;5.40;99.90
35559;DHT22;21661;50.794;-1.066;2023-01-24T10:03:21;5.30;99.90
35559;DHT22;21661;50.794;-1.066;2023-01-24T10:05:52;5.30;99.90
35559;DHT22;21661;50.794;-1.066;2023-01-24T10:08:37;5.30;99.90
35559;DHT22;21661;50.794;-1.066;2023-01-24T10:14:14;5.40;99.90
35559;DHT22;21661;50.794;-1.066;2023-01-24T10:19:53;5.40;99.90
35559;DHT22;21661;50.794;-1.066;2023-01-24T10:25:23;5.50;99.90
35559;DHT22;21661;50.794;-1.066;2023-01-24T10:27:53;5.40;99.90
35559;DHT22;21661;50.794;-1.066;2023-01-24T10:30:26;5.50;99.90
35559;DHT22;21661;50.794;-1.066;2023-01-24T10:32:59;5.50;99.90
35559;DHT22;21661;50.794;-1.066;2023-01-24T10:35:30;5.50;99.90
35559;DHT22;21661;50.794;-1.066;2023-01-24T10:38:04;5.60;99.90
35559;DHT22;21661;50.794;-1.066;2023-01-24T10:40:31;5.60;99.90
35559;DHT22;21661;50.794;-1.066;2023-01-24T10:42:56;5.50;99.90
35559;DHT22;21661;50.794;-1.066;2023-01-24T10:51:10;5.50;99.90
35559;DHT22;21661;50.794;-1.066;2023-01-24T10:53:36;5.50;99.90
35559;DHT22;21661;50.794;-1.066;2023-01-24T10:56:03;5.40;99.90
35559;DHT22;21661;50.794;-1.066;2023-01-24T10:58:55;5.40;99.90
35559;DHT22;21661;50.794;-1.066;2023-01-24T11:01:23;5.50;99.90
35559;DHT22;21661;50.794;-1.066;2023-01-24T11:03:56;5.40;99.90
35559;DHT22;21661;50.794;-1.066;2023-01-24T11:06:35;5.50;99.90
35559;DHT22;21661;50.794;-1.066;2023-01-24T11:09:14;5.50;99.90
35559;DHT22;21661;50.794;-1.066;2023-01-24T11:11:46;5.40;99.90
35559;DHT22;21661;50.794;-1.066;2023-01-24T11:14:19;5.50;99.90
35559;DHT22;21661;50.794;-1.066;2023-01-24T11:16:47;5.50;99.90
35559;DHT22;21661;50.794;-1.066;2023-01-24T11:19:30;5.50;99.90
35559;DHT22;21661;50.794;-1.066;2023-01-24T11:22:01;5.50;99.90
35559;DHT22;21661;50.794;-1.066;2023-01-24T11:24:28;5.50;99.90
35559;DHT22;21661;50.794;-1.066;2023-01-24T11:27:13;5.50;99.90
35559;DHT22;21661;50.794;-1.066;2023-01-24T11:29:39;5.50;99.90
35559;DHT22;21661;50.794;-1.066;2023-01-24T11:48:30;5.60;99.90
35559;DHT22;21661;50.794;-1.066;2023-01-24T12:10:14;5.70;99.90
35559;DHT22;21661;50.794;-1.066;2023-01-24T12:12:51;5.70;99.90
35559;DHT22;21661;50.794;-1.066;2023-01-24T12:21:05;5.60;99.90
35559;DHT22;21661;50.794;-1.066;2023-01-24T12:27:12;5.60;99.90
35559;DHT22;21661;50.794;-1.066;2023-01-24T12:29:15;5.60;99.90
35559;DHT22;21661;50.794;-1.066;2023-01-24T12:31:49;5.60;99.90
35559;DHT22;21661;50.794;-1.066;2023-01-24T12:34:41;5.60;99.90
35559;DHT22;21661;50.794;-1.066;2023-01-24T12:42:38;5.70;99.90
35559;DHT22;21661;50.794;-1.066;2023-01-24T12:45:14;5.60;99.90
35559;DHT22;21661;50.794;-1.066;2023-01-24T12:47:57;5.60;99.90
35559;DHT22;21661;50.794;-1.066;2023-01-24T12:53:29;5.70;99.90
35559;DHT22;21661;50.794;-1.066;2023-01-24T12:56:22;5.80;99.90
35559;DHT22;21661;50.794;-1.066;2023-01-24T12:58:49;5.70;99.90
35559;DHT22;21661;50.794;-1.066;2023-01-24T13:07:31;5.70;99.90
35559;DHT22;21661;50.794;-1.066;2023-01-24T13:12:58;5.70;99.90
35559;DHT22;21661;50.794;-1.066;2023-01-24T13:15:42;5.70;99.90
35559;DHT22;21661;50.794;-1.066;2023-01-24T13:18:33;5.60;99.90
35559;DHT22;21661;50.794;-1.066;2023-01-24T13:23:57;5.70;99.90
35559;DHT22;21661;50.794;-1.066;2023-01-24T13:29:29;5.80;99.90
35559;DHT22;21661;50.794;-1.066;2023-01-24T13:32:09;5.80;99.90
35559;DHT22;21661;50.794;-1.066;2023-01-24T13:34:56;5.80;99.90
35559;DHT22;21661;50.794;-1.066;2023-01-24T13:37:28;5.80;99.90
35559;DHT22;21661;50.794;-1.066;2023-01-24T13:40:05;5.80;99.90
35559;DHT22;21661;50.794;-1.066;2023-01-24T13:44:58;5.70;99.90
35559;DHT22;21661;50.794;-1.066;2023-01-24T13:47:44;5.70;99.90
35559;DHT22;21661;50.794;-1.066;2023-01-24T13:50:10;5.60;99.90
35559;DHT22;21661;50.794;-1.066;2023-01-24T13:52:38;5.60;99.90
35559;DHT22;21661;50.794;-1.066;2023-01-24T13:57:46;5.60;99.90
35559;DHT22;21661;50.794;-1.066;2023-01-24T14:08:01;5.60;99.90
35559;DHT22;21661;50.794;-1.066;2023-01-24T14:10:45;5.60;99.90
35559;DHT22;21661;50.794;-1.066;2023-01-24T14:22:03;5.60;99.90
35559;DHT22;21661;50.794;-1.066;2023-01-24T14:24:56;5.60;99.90
35559;DHT22;21661;50.794;-1.066;2023-01-24T14:27:45;5.70;99.90
35559;DHT22;21661;50.794;-1.066;2023-01-24T14:35:29;5.60;99.90
35559;DHT22;21661;50.794;-1.066;2023-01-24T14:38:12;5.60;99.90
35559;DHT22;21661;50.794;-1.066;2023-01-24T14:40:39;5.60;99.90
35559;DHT22;21661;50.794;-1.066;2023-01-24T14:43:05;5.60;99.90
35559;DHT22;21661;50.794;-1.066;2023-01-24T14:45:33;5.60;99.90
35559;DHT22;21661;50.794;-1.066;2023-01-24T14:48:01;5.50;99.90
35559;DHT22;21661;50.794;-1.066;2023-01-24T14:50:33;5.50;99.90
35559;DHT22;21661;50.794;-1.066;2023-01-24T14:53:22;5.60;99.90
35559;DHT22;21661;50.794;-1.066;2023-01-24T14:55:50;5.60;99.90
35559;DHT22;21661;50.794;-1.066;2023-01-24T14:58:21;5.60;99.90
35559;DHT22;21661;50.794;-1.066;2023-01-24T15:00:49;5.50;99.90
35559;DHT22;21661;50.794;-1.066;2023-01-24T15:03:24;5.50;99.90
35559;DHT22;21661;50.794;-1.066;2023-01-24T15:05:56;5.50;99.90
35559;DHT22;21661;50.794;-1.066;2023-01-24T15:08:22;5.50;99.90
35559;DHT22;21661;50.794;-1.066;2023-01-24T15:11:05;5.50;99.90
35559;DHT22;21661;50.794;-1.066;2023-01-24T15:13:43;5.50;99.90
35559;DHT22;21661;50.794;-1.066;2023-01-24T15:16:19;5.50;99.90
35559;DHT22;21661;50.794;-1.066;2023-01-24T15:18:49;5.50;99.90
35559;DHT22;21661;50.794;-1.066;2023-01-24T15:21:40;5.50;99.90
35559;DHT22;21661;50.794;-1.066;2023-01-24T15:26:53;5.40;99.90
35559;DHT22;21661;50.794;-1.066;2023-01-24T15:32:27;5.40;99.90
35559;DHT22;21661;50.794;-1.066;2023-01-24T15:38:28;5.30;99.90
35559;DHT22;21661;50.794;-1.066;2023-01-24T15:43:38;5.30;99.90
35559;DHT22;21661;50.794;-1.066;2023-01-24T15:46:19;5.30;99.90
35559;DHT22;21661;50.794;-1.066;2023-01-24T15:49:20;5.40;99.90
35559;DHT22;21661;50.794;-1.066;2023-01-24T15:54:36;5.50;99.90
35559;DHT22;21661;50.794;-1.066;2023-01-24T15:57:04;5.40;99.90
35559;DHT22;21661;50.794;-1.066;2023-01-24T15:59:32;5.50;99.90
35559;DHT22;21661;50.794;-1.066;2023-01-24T16:01:59;5.40;99.90
35559;DHT22;21661;50.794;-1.066;2023-01-24T16:04:25;5.40;99.90
35559;DHT22;21661;50.794;-1.066;2023-01-24T16:06:51;5.40;99.90
35559;DHT22;21661;50.794;-1.066;2023-01-24T16:09:17;5.40;99.90
35559;DHT22;21661;50.794;-1.066;2023-01-24T16:11:45;5.50;99.90
35559;DHT22;21661;50.794;-1.066;2023-01-24T16:14:15;5.40;99.90
35559;DHT22;21661;50.794;-1.066;2023-01-24T16:16:41;5.40;99.90
35559;DHT22;21661;50.794;-1.066;2023-01-24T16:19:15;5.50;99.90
35559;DHT22;21661;50.794;-1.066;2023-01-24T16:21:42;5.40;99.90
35559;DHT22;21661;50.794;-1.066;2023-01-24T16:24:07;5.40;99.90
35559;DHT22;21661;50.794;-1.066;2023-01-24T16:26:38;5.40;99.90
35559;DHT22;21661;50.794;-1.066;2023-01-24T16:29:12;5.30;99.90
35559;DHT22;21661;50.794;-1.066;2023-01-24T16:31:38;5.30;99.90
35559;DHT22;21661;50.794;-1.066;2023-01-24T16:34:04;5.30;99.90
35559;DHT22;21661;50.794;-1.066;2023-01-24T16:36:29;5.30;99.90
35559;DHT22;21661;50.794;-1.066;2023-01-24T16:38:55;5.40;99.90
35559;DHT22;21661;50.794;-1.066;2023-01-24T16:41:20;5.20;99.90
35559;DHT22;21661;50.794;-1.066;2023-01-24T16:43:46;5.30;99.90
35559;DHT22;21661;50.794;-1.066;2023-01-24T16:46:19;5.30;99.90
35559;DHT22;21661;50.794;-1.066;2023-01-24T16:48:46;5.30;99.90
35559;DHT22;21661;50.794;-1.066;2023-01-24T16:51:13;5.30;99.90
35559;DHT22;21661;50.794;-1.066;2023-01-24T16:53:39;5.30;99.90
35559;DHT22;21661;50.794;-1.066;2023-01-24T16:56:05;5.30;99.90
35559;DHT22;21661;50.794;-1.066;2023-01-24T16:58:31;5.20;99.90
35559;DHT22;21661;50.794;-1.066;2023-01-24T17:00:56;5.10;99.90
35559;DHT22;21661;50.794;-1.066;2023-01-24T17:03:22;5.10;99.90
35559;DHT22;21661;50.794;-1.066;2023-01-24T17:05:48;5.20;99.90
35559;DHT22;21661;50.794;-1.066;2023-01-24T17:08:14;5.20;99.90
35559;DHT22;21661;50.794;-1.066;2023-01-24T17:10:40;5.20;99.90
35559;DHT22;21661;50.794;-1.066;2023-01-24T17:13:07;5.20;99.90
35559;DHT22;21661;50.794;-1.066;2023-01-24T17:15:37;5.20;99.90
35559;DHT22;21661;50.794;-1.066;2023-01-24T17:18:05;5.30;99.90
35559;DHT22;21661;50.794;-1.066;2023-01-24T17:20:31;5.20;99.90
35559;DHT22;21661;50.794;-1.066;2023-01-24T17:22:57;5.20;99.90
35559;DHT22;21661;50.794;-1.066;2023-01-24T17:25:25;5.20;99.90
35559;DHT22;21661;50.794;-1.066;2023-01-24T17:27:51;5.10;99.90
35559;DHT22;21661;50.794;-1.066;2023-01-24T17:30:17;5.00;99.90
35559;DHT22;21661;50.794;-1.066;2023-01-24T17:32:42;5.00;99.90
35559;DHT22;21661;50.794;-1.066;2023-01-24T17:35:08;5.10;99.90
35559;DHT22;21661;50.794;-1.066;2023-01-24T17:37:34;5.10;99.90
35559;DHT22;21661;50.794;-1.066;2023-01-24T17:40:00;5.20;99.90
35559;DHT22;21661;50.794;-1.066;2023-01-24T17:42:26;5.10;99.90
35559;DHT22;21661;50.794;-1.066;2023-01-24T17:44:51;5.10;99.90
35559;DHT22;21661;50.794;-1.066;2023-01-24T17:47:17;5.10;99.90
35559;DHT22;21661;50.794;-1.066;2023-01-24T17:49:43;5.00;99.90
35559;DHT22;21661;50.794;-1.066;2023-01-24T17:52:08;5.00;99.90
35559;DHT22;21661;50.794;-1.066;2023-01-24T17:54:34;4.90;99.90
35559;DHT22;21661;50.794;-1.066;2023-01-24T17:56:59;4.90;99.90
35559;DHT22;21661;50.794;-1.066;2023-01-24T17:59:25;4.90;99.90
35559;DHT22;21661;50.794;-1.066;2023-01-24T18:01:51;5.00;99.90
35559;DHT22;21661;50.794;-1.066;2023-01-24T18:04:16;4.90;99.90
35559;DHT22;21661;50.794;-1.066;2023-01-24T18:06:42;5.00;99.90